Weather observations for the past three days for
Grand Junction Regional Airport
Metric (Imperial)
Date Time (mdt) Wind (kph) Vis. (km) Weather Sky Cond. Temperature (ºC) Relative Humidity Wind Chill (°C) Heat Index (°C) Pressure Precipitation (cm)
Air Dwpt 6 hour altimeter (cm) sea level (mb) 1 hr 3 hr 6 hr
Max. Min.
07 14:53 W 11 G 33 16.09 Fair CLR 19.4 -5 19% 76.33 1013.8
07 13:53 NW 9 16.09 Fair CLR 18.9 -5.6 19% 76.4 1015.2
07 12:53 SE 7 16.09 Fair CLR 16.7 -6.7 20% 76.5 1016.6
07 11:53 Calm 16.09 Fair CLR 15 -7.2 15.6 2.8 21% 76.58 1017.9
07 10:53 Vrbl 6 16.09 Fair CLR 13.3 -6.7 24% 76.63 1018.5
07 09:53 SE 15 16.09 Fair CLR 11.7 -6.1 28% 76.68 1019.6
07 08:53 E 17 16.09 Fair CLR 9.4 -6.1 33% 7 76.73 1020.4
07 07:53 E 17 16.09 Fair CLR 6.7 -5 43% 4 76.76 1020.8
07 06:53 E 17 16.09 Fair CLR 3.9 -5.6 50% 0 76.73 1020.6
07 05:53 E 11 16.09 Fair CLR 2.8 -6.1 7.8 2.8 52% 0 76.71 1020.5
07 04:53 E 24 16.09 Fair CLR 5.6 -6.1 43% 2 76.68 1019.7
07 03:53 E 13 16.09 Fair CLR 4.4 -6.1 47% 2 76.66 1019.7
07 02:53 E 20 16.09 Fair CLR 6.1 -7.8 37% 3 76.66 1019.5
07 01:53 E 17 16.09 Fair CLR 5.6 -7.2 40% 3 76.66 1019.7
07 00:53 E 15 16.09 Fair CLR 6.7 -8.3 34% 4 76.66 1019.4
06 23:53 E 11 16.09 Fair CLR 7.2 -7.2 15 7.2 35% 5 76.66 1019.6
06 22:53 E 15 16.09 Fair CLR 8.9 -10 25% 7 76.63 1019.2
06 21:53 NE 9 16.09 Fair CLR 8.3 -9.4 28% 7 76.61 1019.3
06 20:53 Calm 16.09 Fair CLR 10.6 -7.8 27% 76.53 1018.2
06 19:53 SW 13 16.09 Fair CLR 13.3 -8.9 21% 76.48 1017.1
06 18:53 W 17 G 31 16.09 Fair CLR 14.4 -9.4 18% 76.43 1016.2
06 17:53 W 20 G 26 16.09 Fair CLR 14.4 -8.9 15 10.6 19% 76.4 1015.6
06 16:53 W 24 G 33 16.09 Fair CLR 14.4 -7.2 22% 76.38 1014.8
06 15:53 NW 20 G 31 16.09 Fair CLR 14.4 -8.9 19% 76.4 1015.2
06 14:53 Calm 16.09 Partly Cloudy SCT080 12.8 -8.3 22% 76.43 1016.0
06 13:53 NW 19 G 41 16.09 Fair CLR 13.3 -8.9 21% 76.4 1015.2
06 12:53 N 24 G 41 16.09 A Few Clouds FEW075 12.8 -9.4 21% 76.4 1015.0
06 11:53 W 11 G 28 16.09 A Few Clouds FEW070 11.1 -6.7 11.1 5 28% 76.38 1015.0 0.13
06 10:53 NW 20 16.09 Fair CLR 10.6 -6.1 31% 76.33 1014.2
06 09:53 NW 15 16.09 Fair CLR 8.3 -2.2 48% 6 76.28 1013.7
06 08:53 N 17 16.09 A Few Clouds FEW036 FEW100 6.1 0.6 68% 3 76.28 1014.0 0.13
06 07:53 S 9 16.09 Overcast OVC080 5 2.8 86% 3 76.17 1012.5
06 06:53 NE 13 16.09 Light Rain FEW030 OVC041 5 1.7 79% 2 76.07 1010.8 0.13
06 05:53 NE 17 16.09 Light Rain OVC045 7.8 2.2 12.8 7.8 68% 5 75.9 1007.8
06 04:53 Vrbl 7 16.09 Overcast BKN065 OVC075 10 0.6 52% 9 75.79 1005.6
06 03:53 N 7 16.09 Partly Cloudy FEW080 SCT100 9.4 0 52% 9 75.79 1005.7
06 02:53 N 7 16.09 Partly Cloudy SCT110 8.3 0.6 59% 7 75.74 1005.2
06 01:53 NE 7 16.09 Partly Cloudy SCT085 11.1 -0.6 45% 75.74 1004.8
06 00:53 E 6 16.09 Mostly Cloudy BKN095 11.7 0 45% 75.74 1005.0
05 23:53 E 15 16.09 Fair CLR 12.8 0.6 18.9 12.8 44% 75.72 1004.5
05 22:53 NW 6 16.09 Overcast BKN090 OVC110 13.3 1.1 44% 75.69 1004.3
05 21:53 NW 13 16.09 Overcast OVC110 13.3 1.1 44% 75.69 1004.3
05 20:53 W 7 16.09 Overcast OVC110 13.3 0.6 42% 75.62 1003.8
05 19:53 NW 24 16.09 Fair CLR 15.6 -1.7 31% 75.57 1002.9
05 18:53 W 33 16.09 Fair and Breezy CLR 16.7 -1.7 29% 75.46 1002.1
05 17:53 NW 35 G 50 16.09 Fair and Breezy CLR 18.9 -3.3 22.2 18.9 22% 75.36 1000.5
05 16:53 W 37 G 48 16.09 Fair and Breezy CLR 21.7 -12.8 9% 75.36 1000.0
05 15:53 W 31 G 48 16.09 Fair CLR 21.1 -12.2 10% 75.39 1000.2
05 14:53 W 35 G 56 11.27 Fair and Breezy CLR 21.1 -12.2 10% 75.44 1000.8
05 13:53 W 41 G 54 14.48 Fair and Breezy CLR 21.7 -10.6 10% 75.46 1000.8
05 12:53 W 33 G 46 16.09 A Few Clouds and Breezy FEW100 20.6 -8.3 14% 75.51 1001.2
05 11:53 W 15 G 35 16.09 Fair CLR 19.4 -3.9 19.4 6.1 20% 75.54 1001.8
05 10:53 W 20 G 26 16.09 Fair CLR 18.3 -0.6 28% 75.59 1002.4
05 09:53 N 6 16.09 Fair CLR 16.7 0 32% 75.64 1003.3
05 08:53 W 7 16.09 Partly Cloudy SCT100 13.3 5.6 60% 75.69 1004.2
05 07:53 Vrbl 7 16.09 Mostly Cloudy BKN100 11.7 4.4 61% 75.72 1005.1
05 06:53 Calm 16.09 Fair CLR 7.2 3.3 77% 75.69 1004.7
05 05:53 Calm 16.09 A Few Clouds FEW120 7.2 2.8 14.4 7.2 74% 75.67 1004.4
05 04:53 N 6 16.09 Partly Cloudy SCT120 8.3 3.9 74% 75.64 1004.0
05 03:53 NW 6 16.09 Partly Cloudy SCT120 10 3.9 66% 75.64 1003.5
05 02:53 Calm 16.09 Fair CLR 10 3.3 63% 75.64 1003.4
05 01:53 NE 15 16.09 Fair CLR 11.1 3.9 61% 75.69 1004.1
05 00:53 Calm 16.09 Fair CLR 13.3 4.4 55% 75.72 1004.3
04 23:53 E 7 16.09 Fair CLR 14.4 4.4 21.7 14.4 51% 75.69 1004.0
04 22:53 N 22 16.09 Partly Cloudy SCT110 15 4.4 49% 75.69 1004.3
04 21:53 N 11 16.09 Overcast OVC100 16.7 3.9 43% 75.69 1004.4
04 20:53 N 15 16.09 Mostly Cloudy BKN120 17.2 2.8 38% 75.64 1003.3
04 19:53 NW 24 16.09 Partly Cloudy SCT120 17.2 3.9 41% 75.59 1003.1
04 18:53 SW 22 16.09 Partly Cloudy SCT090 20.6 1.1 27% 75.57 1002.1
04 17:53 SE 26 16.09 Mostly Cloudy BKN090 BKN110 20.6 2.8 23.3 17.8 31% 75.59 1002.8
04 16:53 SE 19 16.09 A Few Clouds FEW095 21.1 3.3 31% 75.62 1002.6
04 15:53 Calm 16.09 A Few Clouds FEW095 21.7 0.6 25% 75.62 1002.4
Date Time (mdt) Wind (kph) Vis. (km) Weather Sky Cond. Air Dwpt Max. Min. Relative Humidity Wind Chill (°C) Heat Index (°C) altimeter (cm) sea level (mb) 1 hr 3 hr 6 hr
6 hour
Temperature (ºC) Pressure Precipitation (cm)